createdAt,value
2019-02-26T00:01:28.591Z,20.92
2019-02-26T00:03:59.543Z,20.97
2019-02-26T00:06:30.744Z,20.95
2019-02-26T00:09:03.797Z,20.97
2019-02-26T00:11:37.996Z,20.99
2019-02-26T00:14:13.176Z,20.99
2019-02-26T00:16:42.407Z,20.96
2019-02-26T00:19:14.482Z,20.97
2019-02-26T00:21:47.456Z,20.96
2019-02-26T00:24:18.529Z,20.96
2019-02-26T00:26:49.753Z,20.96
2019-02-26T00:29:21.509Z,20.98
2019-02-26T00:31:56.114Z,20.94
2019-02-26T00:34:27.486Z,20.99
2019-02-26T00:36:59.492Z,20.97
2019-02-26T00:39:31.601Z,20.94
2019-02-26T00:42:05.188Z,20.90
2019-02-26T00:44:37.260Z,20.95
2019-02-26T00:47:09.056Z,20.97
2019-02-26T00:49:41.906Z,20.97
2019-02-26T00:52:13.380Z,20.99
2019-02-26T00:54:45.683Z,21.00
2019-02-26T00:57:16.780Z,20.97
2019-02-26T00:59:48.138Z,20.98
2019-02-26T01:02:20.172Z,20.98
2019-02-26T01:04:51.224Z,20.95
2019-02-26T01:07:23.845Z,20.95
2019-02-26T01:09:56.898Z,20.94
2019-02-26T01:12:28.041Z,20.94
2019-02-26T01:14:59.080Z,20.93
2019-02-26T01:17:31.263Z,20.93
2019-02-26T01:20:05.337Z,20.92
2019-02-26T01:22:37.755Z,20.95
2019-02-26T01:25:12.683Z,20.89
2019-02-26T01:27:47.600Z,20.88
2019-02-26T01:30:20.716Z,20.89
2019-02-26T01:32:49.657Z,20.88
2019-02-26T01:35:20.720Z,20.87
2019-02-26T01:37:53.666Z,20.85
2019-02-26T01:40:25.829Z,20.85
2019-02-26T01:42:57.910Z,20.86
2019-02-26T01:45:32.262Z,20.86
2019-02-26T01:48:04.120Z,20.86
2019-02-26T01:50:36.131Z,20.88
2019-02-26T01:53:08.208Z,20.83
2019-02-26T01:55:39.795Z,20.86
2019-02-26T01:58:15.931Z,20.90
2019-02-26T02:00:44.963Z,20.85
2019-02-26T02:03:16.145Z,20.82
2019-02-26T02:05:47.967Z,20.80
2019-02-26T02:08:22.422Z,20.78
2019-02-26T02:10:56.243Z,20.85
2019-02-26T02:13:28.307Z,20.84
2019-02-26T02:15:59.807Z,20.81
2019-02-26T02:18:34.091Z,20.80
2019-02-26T02:21:05.159Z,20.86
2019-02-26T02:23:36.234Z,20.85
2019-02-26T02:26:09.407Z,20.82
2019-02-26T02:28:40.146Z,20.77
2019-02-26T02:31:11.290Z,20.74
2019-02-26T02:33:42.503Z,20.76
2019-02-26T02:36:15.106Z,20.76
2019-02-26T02:38:46.384Z,20.78
2019-02-26T02:41:17.435Z,20.76
2019-02-26T02:43:49.540Z,20.74
2019-02-26T02:46:20.640Z,20.76
2019-02-26T02:48:51.732Z,20.77
2019-02-26T02:51:22.807Z,20.75
2019-02-26T02:53:56.476Z,20.77
2019-02-26T02:56:26.732Z,20.77
2019-02-26T02:58:57.819Z,20.77
2019-02-26T03:01:28.884Z,20.74
2019-02-26T03:04:01.110Z,20.78
2019-02-26T03:06:36.038Z,20.77
2019-02-26T03:09:11.634Z,20.74
2019-02-26T03:11:44.540Z,20.77
2019-02-26T03:14:16.641Z,20.82
2019-02-26T03:16:50.495Z,20.79
2019-02-26T03:19:20.714Z,20.80
2019-02-26T03:21:52.624Z,20.78
2019-02-26T03:24:26.300Z,20.79
2019-02-26T03:26:57.403Z,20.74
2019-02-26T03:29:28.580Z,20.78
2019-02-26T03:31:59.654Z,20.79
2019-02-26T03:34:30.859Z,20.70
2019-02-26T03:37:03.870Z,20.69
2019-02-26T03:39:34.696Z,20.71
2019-02-26T03:42:05.814Z,20.71
2019-02-26T03:44:36.902Z,20.73
2019-02-26T03:47:07.972Z,20.77
2019-02-26T03:49:41.719Z,20.76
2019-02-26T03:52:15.329Z,20.72
2019-02-26T03:54:45.942Z,20.67
2019-02-26T03:57:19.379Z,20.67
2019-02-26T03:59:50.132Z,20.66
2019-02-26T04:02:23.506Z,20.71
2019-02-26T04:04:56.560Z,20.73
2019-02-26T04:07:28.357Z,20.72
2019-02-26T04:09:59.624Z,20.71
2019-02-26T04:12:36.053Z,20.76
2019-02-26T04:15:04.217Z,20.79
2019-02-26T04:17:36.820Z,20.76
2019-02-26T04:20:09.938Z,20.74
2019-02-26T04:22:42.891Z,20.76
2019-02-26T04:25:30.608Z,20.76
2019-02-26T04:28:19.265Z,20.73
2019-02-26T04:30:59.557Z,20.68
2019-02-26T04:33:53.737Z,20.72
2019-02-26T04:36:27.888Z,20.79
2019-02-26T04:39:27.491Z,20.81
2019-02-26T04:42:16.829Z,20.76
2019-02-26T04:45:09.056Z,20.74
2019-02-26T04:47:42.754Z,20.77
2019-02-26T04:50:13.814Z,20.72
2019-02-26T04:52:44.900Z,20.74
2019-02-26T04:55:15.896Z,20.74
2019-02-26T04:57:49.079Z,20.73
2019-02-26T05:00:19.727Z,20.68
2019-02-26T05:02:50.816Z,20.72
2019-02-26T05:05:22.396Z,20.67
2019-02-26T05:07:54.443Z,20.71
2019-02-26T05:10:27.023Z,20.74
2019-02-26T05:13:01.070Z,20.70
2019-02-26T05:15:33.186Z,20.66
2019-02-26T05:18:03.847Z,20.65
2019-02-26T05:20:40.115Z,20.68
2019-02-26T05:23:10.813Z,20.71
2019-02-26T05:25:44.317Z,20.67
2019-02-26T05:28:17.522Z,20.68
2019-02-26T05:30:49.550Z,20.69
2019-02-26T05:33:21.734Z,20.67
2019-02-26T05:35:52.986Z,20.74
2019-02-26T05:38:26.434Z,20.70
2019-02-26T05:40:56.933Z,20.65
2019-02-26T05:43:28.840Z,20.68
2019-02-26T05:46:03.856Z,20.66
2019-02-26T05:48:33.578Z,20.65
2019-02-26T05:51:05.670Z,20.63
2019-02-26T05:53:37.495Z,20.63
2019-02-26T05:56:09.721Z,20.68
2019-02-26T05:58:44.081Z,20.70
2019-02-26T06:01:16.248Z,20.68
2019-02-26T06:03:49.699Z,20.69
2019-02-26T06:06:19.655Z,20.68
2019-02-26T06:08:50.774Z,20.71
2019-02-26T06:11:21.860Z,20.67
2019-02-26T06:13:55.539Z,20.68
2019-02-26T06:16:27.136Z,20.64
2019-02-26T06:18:58.533Z,20.62
2019-02-26T06:21:29.594Z,20.64
2019-02-26T06:24:00.708Z,20.64
2019-02-26T06:26:33.317Z,20.65
2019-02-26T06:29:04.626Z,20.63
2019-02-26T06:31:37.676Z,20.66
2019-02-26T06:34:09.332Z,20.66
2019-02-26T06:36:42.085Z,20.66
2019-02-26T06:39:14.044Z,20.63
2019-02-26T06:41:46.740Z,20.54
2019-02-26T06:44:17.885Z,20.51
2019-02-26T06:46:48.951Z,20.50
2019-02-26T06:49:22.309Z,20.49
2019-02-26T06:51:54.310Z,20.49
2019-02-26T06:54:27.142Z,20.50
2019-02-26T06:56:58.157Z,20.51
2019-02-26T06:59:32.466Z,20.53
2019-02-26T07:02:03.665Z,20.55
2019-02-26T07:04:34.846Z,20.57
2019-02-26T07:07:07.402Z,20.61
2019-02-26T07:09:39.175Z,20.58
2019-02-26T07:12:11.445Z,20.57
2019-02-26T07:14:42.610Z,20.57
2019-02-26T07:17:13.664Z,20.51
2019-02-26T07:19:44.783Z,20.59
2019-02-26T07:22:16.506Z,20.60
2019-02-26T07:24:49.690Z,20.61
2019-02-26T07:27:21.377Z,20.62
2019-02-26T07:29:52.532Z,20.64
2019-02-26T07:32:24.629Z,20.64
2019-02-26T07:34:55.687Z,20.65
2019-02-26T07:37:28.692Z,20.66
2019-02-26T07:39:59.681Z,20.67
2019-02-26T07:42:32.738Z,20.69
2019-02-26T07:45:03.841Z,20.69
2019-02-26T07:47:36.392Z,20.70
2019-02-26T07:50:12.296Z,20.71
2019-02-26T07:52:42.693Z,20.73
2019-02-26T07:55:16.822Z,20.73
2019-02-26T07:57:48.907Z,20.83
2019-02-26T08:00:21.636Z,20.81
2019-02-26T08:02:56.387Z,20.79
2019-02-26T08:05:26.794Z,20.78
2019-02-26T08:07:59.431Z,20.77
2019-02-26T08:10:30.627Z,20.78
2019-02-26T08:13:03.411Z,20.77
2019-02-26T08:15:35.298Z,20.77
2019-02-26T08:18:07.327Z,20.79
2019-02-26T08:20:40.291Z,20.81
2019-02-26T08:23:11.974Z,20.87
2019-02-26T08:25:43.059Z,20.99
2019-02-26T08:28:15.437Z,21.03
2019-02-26T08:30:47.923Z,21.02
2019-02-26T08:33:19.791Z,21.02
2019-02-26T08:35:55.534Z,21.18
2019-02-26T08:38:24.627Z,21.15
2019-02-26T08:40:57.456Z,21.12
2019-02-26T08:43:28.525Z,21.10
2019-02-26T08:45:59.610Z,21.15
2019-02-26T08:48:30.665Z,21.19
2019-02-26T08:51:05.362Z,21.20
2019-02-26T08:53:34.454Z,21.24
2019-02-26T08:56:05.565Z,21.22
2019-02-26T08:58:36.694Z,21.27
2019-02-26T09:01:07.880Z,21.25
2019-02-26T09:03:40.917Z,21.31
2019-02-26T09:06:13.650Z,21.28
2019-02-26T09:08:44.515Z,21.27
2019-02-26T09:11:15.630Z,21.28
2019-02-26T09:13:46.684Z,21.39
2019-02-26T09:16:19.931Z,21.36
2019-02-26T09:18:50.685Z,21.33
2019-02-26T09:21:22.844Z,21.35
2019-02-26T09:23:57.075Z,21.36
2019-02-26T09:26:27.726Z,21.38
2019-02-26T09:28:58.782Z,21.45
2019-02-26T09:31:29.921Z,21.41
2019-02-26T09:34:01.017Z,21.39
2019-02-26T09:36:33.151Z,21.41
2019-02-26T09:39:06.294Z,21.53
2019-02-26T09:41:40.221Z,21.52
2019-02-26T09:44:11.723Z,21.54
2019-02-26T09:46:43.932Z,21.59
2019-02-26T09:49:15.091Z,21.63
2019-02-26T09:51:47.774Z,21.69
2019-02-26T09:54:20.700Z,21.73
2019-02-26T09:56:51.691Z,21.80
2019-02-26T09:59:22.796Z,21.77
2019-02-26T10:01:54.716Z,21.81
2019-02-26T10:04:28.933Z,21.79
2019-02-26T10:07:02.301Z,21.82
2019-02-26T10:09:37.404Z,21.84
2019-02-26T10:12:12.296Z,21.83
2019-02-26T10:14:41.406Z,21.88
2019-02-26T10:17:14.195Z,21.92
2019-02-26T10:19:45.308Z,21.91
2019-02-26T10:22:16.425Z,21.87
2019-02-26T10:24:47.499Z,21.87
2019-02-26T10:27:18.640Z,21.92
2019-02-26T10:29:50.011Z,21.91
2019-02-26T10:32:21.101Z,21.93
2019-02-26T10:34:52.179Z,21.94
2019-02-26T10:37:23.290Z,21.95
2019-02-26T10:39:54.944Z,22.02
2019-02-26T10:42:26.177Z,22.03
2019-02-26T10:44:57.298Z,22.05
2019-02-26T10:47:29.775Z,22.17
2019-02-26T10:50:01.235Z,22.30
2019-02-26T10:52:32.635Z,22.20
2019-02-26T10:55:04.278Z,22.27
2019-02-26T10:57:36.144Z,22.37
2019-02-26T11:00:11.280Z,22.35
2019-02-26T11:02:46.151Z,22.31
2019-02-26T11:05:21.511Z,22.40
2019-02-26T11:07:49.757Z,22.31
2019-02-26T11:10:22.684Z,22.27
2019-02-26T11:12:56.234Z,22.24
2019-02-26T11:15:30.171Z,22.23
2019-02-26T11:18:00.295Z,22.27
2019-02-26T11:20:34.052Z,22.34
2019-02-26T11:23:07.978Z,22.38
2019-02-26T11:25:39.980Z,22.52
2019-02-26T11:28:13.006Z,22.34
2019-02-26T11:30:44.795Z,22.36
2019-02-26T11:33:16.737Z,22.42
2019-02-26T11:35:49.428Z,22.52
2019-02-26T11:38:22.043Z,22.49
2019-02-26T11:40:53.392Z,22.37
2019-02-26T11:43:26.957Z,22.36
2019-02-26T11:45:59.193Z,22.32
2019-02-26T11:48:32.729Z,22.51
2019-02-26T11:51:03.306Z,22.38
2019-02-26T11:53:34.423Z,22.46
2019-02-26T11:56:05.550Z,22.53
2019-02-26T11:58:36.692Z,22.41
2019-02-26T12:01:08.670Z,22.34
2019-02-26T12:03:41.664Z,22.36
2019-02-26T12:06:12.558Z,22.35
2019-02-26T12:08:44.899Z,22.41
2019-02-26T12:11:18.265Z,22.59
2019-02-26T12:13:53.044Z,22.44
2019-02-26T12:16:23.048Z,22.47
2019-02-26T12:18:54.141Z,22.54
2019-02-26T12:21:27.411Z,22.72
2019-02-26T12:24:00.575Z,22.61
2019-02-26T12:26:30.919Z,22.66
2019-02-26T12:29:04.314Z,22.58
2019-02-26T12:31:36.966Z,22.58
2019-02-26T12:34:09.167Z,22.51
2019-02-26T12:36:40.441Z,22.53
2019-02-26T12:39:11.544Z,22.45
2019-02-26T12:41:45.394Z,22.42
2019-02-26T12:44:16.231Z,22.37
2019-02-26T12:46:48.419Z,22.49
2019-02-26T12:49:22.383Z,22.54
2019-02-26T12:51:54.008Z,22.61
2019-02-26T12:54:26.896Z,22.55
2019-02-26T12:57:00.636Z,22.62
2019-02-26T12:59:31.539Z,22.75
2019-02-26T13:02:05.685Z,22.73
2019-02-26T13:04:37.823Z,22.62
2019-02-26T13:07:09.369Z,22.67
2019-02-26T13:09:50.453Z,22.60
2019-02-26T13:12:19.859Z,22.63
2019-02-26T13:14:50.397Z,22.67
2019-02-26T13:17:26.291Z,22.72
2019-02-26T13:19:58.963Z,22.84
2019-02-26T13:22:27.883Z,22.73
2019-02-26T13:25:00.649Z,22.62
2019-02-26T13:27:31.803Z,22.67
2019-02-26T13:30:02.898Z,22.63
2019-02-26T13:32:55.381Z,22.71
2019-02-26T13:35:10.024Z,22.75
2019-02-26T13:37:42.337Z,22.67
2019-02-26T13:40:18.841Z,22.69
2019-02-26T13:45:24.046Z,22.68
2019-02-26T13:48:00.978Z,22.66
2019-02-26T13:50:32.774Z,22.66
2019-02-26T13:53:03.841Z,22.60
2019-02-26T13:55:34.940Z,22.64
2019-02-26T13:58:11.698Z,22.71
2019-02-26T14:25:15.430Z,22.25
2019-02-26T14:27:47.563Z,22.24
2019-02-26T14:30:19.969Z,22.28
2019-02-26T14:32:51.035Z,22.30
2019-02-26T14:35:22.131Z,22.35
2019-02-26T14:37:53.257Z,22.34
2019-02-26T14:40:24.541Z,22.34
2019-02-26T14:42:55.665Z,22.38
2019-02-26T14:45:28.411Z,22.37
2019-02-26T14:48:00.520Z,22.32
2019-02-26T14:50:33.103Z,22.24
2019-02-26T14:53:04.274Z,22.34
2019-02-26T14:55:35.408Z,22.23
2019-02-26T14:58:06.517Z,22.16
2019-02-26T15:00:37.763Z,22.06
2019-02-26T15:03:08.918Z,22.07
2019-02-26T15:05:40.129Z,22.06
2019-02-26T15:08:11.235Z,22.08
2019-02-26T15:10:42.507Z,22.09
2019-02-26T15:13:13.602Z,22.06
2019-02-26T15:15:44.828Z,22.08
2019-02-26T15:18:16.045Z,22.12
2019-02-26T15:20:47.173Z,22.13
2019-02-26T15:23:18.399Z,22.12
2019-02-26T15:25:49.678Z,22.09
2019-02-26T15:28:20.733Z,22.12
2019-02-26T15:30:52.061Z,22.14
2019-02-26T15:33:23.251Z,22.16
2019-02-26T15:35:54.611Z,22.16
2019-02-26T15:38:25.899Z,22.14
2019-02-26T15:40:57.119Z,22.13
2019-02-26T15:43:28.202Z,22.20
2019-02-26T15:45:59.774Z,22.27
2019-02-26T15:48:33.710Z,22.26
2019-02-26T15:51:04.225Z,22.25
2019-02-26T15:53:35.391Z,22.22
2019-02-26T15:56:06.504Z,22.21
2019-02-26T15:58:37.570Z,22.26
2019-02-26T16:01:09.880Z,22.22
2019-02-26T16:03:40.993Z,22.20
2019-02-26T16:06:12.100Z,22.22
2019-02-26T16:08:43.434Z,22.31
2019-02-26T16:11:16.059Z,22.37
2019-02-26T16:13:47.327Z,22.37
2019-02-26T16:16:18.433Z,22.43
2019-02-26T16:18:49.616Z,22.42
2019-02-26T16:21:20.752Z,22.39
2019-02-26T16:23:51.857Z,22.38
2019-02-26T16:26:22.983Z,22.36
2019-02-26T16:28:54.132Z,22.38
2019-02-26T16:31:29.692Z,22.34
2019-02-26T16:33:58.127Z,22.34
2019-02-26T16:36:31.598Z,22.34
2019-02-26T16:39:03.123Z,22.28
2019-02-26T16:41:38.312Z,22.30
2019-02-26T16:44:08.496Z,22.28
2019-02-26T16:46:42.096Z,22.31
2019-02-26T16:49:12.483Z,22.33
2019-02-26T16:51:44.640Z,22.34
2019-02-26T16:54:15.752Z,22.35
2019-02-26T16:56:46.862Z,22.26
2019-02-26T16:59:17.922Z,22.25
2019-02-26T17:01:49.051Z,22.27
2019-02-26T17:04:20.117Z,22.25
2019-02-26T17:06:53.950Z,22.25
2019-02-26T17:09:24.332Z,22.28
2019-02-26T17:11:58.691Z,22.33
2019-02-26T17:14:30.277Z,22.31
2019-02-26T17:17:03.961Z,22.29
2019-02-26T17:19:34.567Z,22.26
2019-02-26T17:22:05.828Z,22.20
2019-02-26T17:24:37.007Z,22.19
2019-02-26T17:27:08.904Z,22.16
2019-02-26T17:29:39.979Z,22.19
2019-02-26T17:32:11.111Z,22.22
2019-02-26T17:34:42.093Z,22.19
2019-02-26T17:37:13.284Z,22.16
2019-02-26T17:39:44.373Z,22.16
2019-02-26T17:42:15.589Z,22.14
2019-02-26T17:44:48.262Z,22.15
2019-02-26T17:47:19.489Z,22.18
2019-02-26T17:49:50.691Z,22.15
2019-02-26T17:52:21.823Z,22.17
2019-02-26T17:54:52.897Z,22.18
2019-02-26T17:57:24.048Z,22.08
2019-02-26T17:59:55.219Z,22.08
2019-02-26T18:02:27.597Z,22.07
2019-02-26T18:05:00.770Z,22.07
2019-02-26T18:07:31.882Z,22.07
2019-02-26T18:10:02.928Z,22.08
2019-02-26T18:12:34.108Z,22.03
2019-02-26T18:15:09.059Z,22.05
2019-02-26T18:17:40.260Z,22.09
2019-02-26T18:20:14.063Z,21.97
2019-02-26T18:22:45.649Z,22.03
2019-02-26T18:25:21.471Z,22.06
2019-02-26T18:27:52.690Z,22.06
2019-02-26T18:30:24.852Z,22.03
2019-02-26T18:32:58.857Z,22.04
2019-02-26T18:35:28.745Z,22.00
2019-02-26T18:37:59.841Z,21.98
2019-02-26T18:40:30.963Z,21.98
2019-02-26T18:43:02.083Z,21.95
2019-02-26T18:45:33.239Z,21.88
2019-02-26T18:48:04.333Z,21.87
2019-02-26T18:50:35.495Z,21.88
2019-02-26T18:53:06.628Z,21.84
2019-02-26T18:55:37.715Z,21.83
2019-02-26T18:58:08.860Z,21.77
2019-02-26T19:00:40.096Z,21.70
2019-02-26T19:03:11.382Z,21.68
2019-02-26T19:05:42.644Z,21.68
2019-02-26T19:08:13.792Z,21.60
2019-02-26T19:10:45.033Z,21.55
2019-02-26T19:13:16.674Z,21.46
2019-02-26T19:15:48.518Z,21.45
2019-02-26T19:18:19.744Z,21.41
2019-02-26T19:20:50.943Z,21.44
2019-02-26T19:23:22.546Z,21.45
2019-02-26T19:25:53.660Z,21.36
2019-02-26T19:28:26.434Z,21.31
2019-02-26T19:30:58.888Z,21.30
2019-02-26T19:33:30.044Z,21.27
2019-02-26T19:36:01.154Z,21.25
2019-02-26T19:38:32.211Z,21.29
2019-02-26T19:41:12.435Z,21.28
2019-02-26T19:43:42.164Z,21.28
2019-02-26T19:46:16.897Z,21.24
2019-02-26T19:48:46.258Z,21.22
2019-02-26T19:51:17.318Z,21.25
2019-02-26T19:53:48.396Z,21.20
2019-02-26T19:56:23.203Z,21.17
2019-02-26T19:58:52.279Z,21.15
2019-02-26T20:01:25.738Z,21.16
2019-02-26T20:03:56.227Z,21.18
2019-02-26T20:06:27.273Z,21.14
2019-02-26T20:08:58.368Z,21.13
2019-02-26T20:11:29.436Z,21.15
2019-02-26T20:14:04.687Z,21.16
2019-02-26T20:16:33.434Z,21.13
2019-02-26T20:19:04.594Z,21.10
2019-02-26T20:21:35.820Z,21.08
2019-02-26T20:24:06.871Z,21.11
2019-02-26T20:26:37.958Z,21.11
2019-02-26T20:29:09.041Z,21.11
2019-02-26T20:31:41.398Z,21.12
2019-02-26T20:34:12.523Z,21.07
2019-02-26T20:36:43.562Z,21.05
2019-02-26T20:39:14.713Z,21.06
2019-02-26T20:41:45.807Z,21.07
2019-02-26T20:44:17.034Z,21.06
2019-02-26T20:46:48.143Z,21.07
2019-02-26T20:49:19.660Z,21.03
2019-02-26T20:51:50.760Z,21.05
2019-02-26T20:54:21.994Z,21.01
2019-02-26T20:56:53.112Z,21.05
2019-02-26T20:59:24.244Z,21.04
2019-02-26T21:01:55.233Z,21.04
2019-02-26T21:04:26.388Z,21.01
2019-02-26T21:06:57.475Z,21.00
2019-02-26T21:09:29.544Z,21.00
2019-02-26T21:12:00.612Z,20.99
2019-02-26T21:14:31.739Z,20.98
2019-02-26T21:17:02.804Z,20.98
2019-02-26T21:19:35.732Z,20.98
2019-02-26T21:22:06.629Z,20.95
2019-02-26T21:24:37.839Z,20.97
2019-02-26T21:27:08.922Z,20.97
2019-02-26T21:29:41.542Z,20.96
2019-02-26T21:32:12.729Z,20.98
2019-02-26T21:34:47.375Z,20.96
2019-02-26T21:37:17.651Z,20.96
2019-02-26T21:39:49.807Z,20.96
2019-02-26T21:42:20.911Z,20.95
2019-02-26T21:44:52.007Z,20.95
2019-02-26T21:47:23.108Z,20.95
2019-02-26T21:49:54.214Z,20.96
2019-02-26T21:52:25.286Z,20.94
2019-02-26T21:54:58.201Z,20.94
2019-02-26T21:57:29.314Z,20.95
2019-02-26T22:00:03.055Z,20.94
2019-02-26T22:02:34.908Z,20.96
2019-02-26T22:05:08.218Z,20.95
2019-02-26T22:07:39.329Z,20.92
2019-02-26T22:10:14.919Z,20.91
2019-02-26T22:12:45.973Z,20.94
2019-02-26T22:15:17.302Z,20.92
2019-02-26T22:17:48.464Z,20.94
2019-02-26T22:20:32.689Z,20.94
2019-02-26T22:22:53.047Z,20.93
2019-02-26T22:25:24.129Z,20.91
2019-02-26T22:27:55.152Z,20.92
2019-02-26T22:30:26.399Z,20.90
2019-02-26T22:32:57.415Z,20.90
2019-02-26T22:35:28.529Z,20.89
2019-02-26T22:37:59.636Z,20.90
2019-02-26T22:40:30.697Z,20.91
2019-02-26T22:43:01.815Z,20.90
2019-02-26T22:45:32.892Z,20.91
2019-02-26T22:48:03.923Z,20.89
2019-02-26T22:50:35.048Z,20.92
2019-02-26T22:53:06.159Z,20.89
2019-02-26T22:55:37.255Z,20.90
2019-02-26T22:58:08.311Z,20.90
2019-02-26T23:00:55.965Z,20.89
2019-02-26T23:03:28.515Z,20.89
2019-02-26T23:05:59.719Z,20.88
2019-02-26T23:08:31.070Z,20.88
2019-02-26T23:11:02.130Z,20.88
2019-02-26T23:13:33.552Z,20.87
2019-02-26T23:16:04.641Z,20.86
2019-02-26T23:18:36.741Z,20.85
2019-02-26T23:21:07.915Z,20.86
2019-02-26T23:23:39.200Z,20.85
2019-02-26T23:26:10.459Z,20.86
2019-02-26T23:28:41.562Z,20.87
2019-02-26T23:31:12.785Z,20.87
2019-02-26T23:33:48.140Z,20.86
2019-02-26T23:36:16.920Z,20.85
2019-02-26T23:38:47.954Z,20.85
2019-02-26T23:41:19.064Z,20.86
2019-02-26T23:43:50.190Z,20.87
2019-02-26T23:46:21.281Z,20.86
2019-02-26T23:48:52.420Z,20.86
2019-02-26T23:51:24.539Z,20.86
2019-02-26T23:53:55.585Z,20.87
2019-02-26T23:56:26.794Z,20.86
2019-02-26T23:58:57.834Z,20.83
